createdAt,value
2023-01-04T00:01:29.370Z,12.57
2023-01-04T00:03:57.324Z,15.00
2023-01-04T00:06:25.329Z,15.60
2023-01-04T00:08:53.318Z,13.27
2023-01-04T00:11:22.653Z,14.77
2023-01-04T00:13:53.711Z,15.87
2023-01-04T00:16:23.286Z,13.17
2023-01-04T00:18:51.798Z,16.63
2023-01-04T00:21:21.537Z,20.50
2023-01-04T00:23:51.261Z,15.90
2023-01-04T00:26:20.461Z,13.50
2023-01-04T00:28:54.195Z,12.77
2023-01-04T00:31:25.288Z,11.63
2023-01-04T00:33:55.151Z,16.70
2023-01-04T00:36:23.470Z,15.80
2023-01-04T00:39:07.355Z,14.53
2023-01-04T00:41:57.967Z,18.17
2023-01-04T00:44:26.116Z,16.80
2023-01-04T00:46:55.514Z,16.03
2023-01-04T00:49:23.435Z,13.70
2023-01-04T00:51:51.502Z,12.67
2023-01-04T00:54:19.861Z,14.10
2023-01-04T00:56:47.919Z,13.30
2023-01-04T00:59:17.127Z,13.87
2023-01-04T01:01:45.241Z,13.77
2023-01-04T01:04:16.840Z,15.80
2023-01-04T01:06:44.951Z,18.30
2023-01-04T01:09:13.036Z,16.80
2023-01-04T01:11:41.300Z,17.30
2023-01-04T01:14:10.200Z,13.90
2023-01-04T01:16:54.312Z,14.83
2023-01-04T01:19:24.207Z,16.07
2023-01-04T01:21:52.195Z,15.53
2023-01-04T01:24:21.506Z,16.00
2023-01-04T01:26:49.483Z,16.83
2023-01-04T01:29:17.354Z,14.80
2023-01-04T01:31:45.342Z,12.10
2023-01-04T01:34:13.286Z,14.70
2023-01-04T01:36:42.624Z,16.70
2023-01-04T01:39:10.561Z,18.80
2023-01-04T01:41:38.535Z,15.23
2023-01-04T01:44:08.429Z,14.13
2023-01-04T01:46:39.120Z,14.30
2023-01-04T01:49:11.591Z,14.87
2023-01-04T01:51:40.091Z,11.87
2023-01-04T01:54:14.621Z,14.23
2023-01-04T01:56:44.670Z,14.13
2023-01-04T01:59:13.755Z,23.83
2023-01-04T02:01:42.067Z,14.63
2023-01-04T02:04:10.156Z,12.00
2023-01-04T02:06:41.776Z,14.57
2023-01-04T02:09:11.051Z,13.23
2023-01-04T02:11:38.954Z,13.50
2023-01-04T02:14:25.974Z,11.87
2023-01-04T02:17:02.065Z,12.17
2023-01-04T02:19:42.884Z,10.53
2023-01-04T02:22:33.914Z,11.30
2023-01-04T02:25:18.248Z,11.30
2023-01-04T02:27:50.901Z,11.30
2023-01-04T02:31:00.908Z,10.33
2023-01-04T02:33:44.526Z,11.00
2023-01-04T02:36:17.778Z,9.67
2023-01-04T02:38:58.651Z,9.80
2023-01-04T02:41:30.548Z,8.80
2023-01-04T02:44:23.409Z,10.30
2023-01-04T02:46:54.860Z,9.53
2023-01-04T02:49:41.733Z,11.90
2023-01-04T02:52:10.129Z,11.40
2023-01-04T02:54:39.143Z,10.47
2023-01-04T02:57:21.126Z,10.43
2023-01-04T03:00:02.390Z,12.73
2023-01-04T03:03:00.963Z,12.80
2023-01-04T03:05:53.651Z,11.70
2023-01-04T03:08:29.703Z,11.00
2023-01-04T03:11:01.715Z,13.53
2023-01-04T03:13:31.352Z,9.67
2023-01-04T03:16:02.587Z,9.17
2023-01-04T03:18:32.071Z,14.30
2023-01-04T03:21:02.850Z,10.10
2023-01-04T03:23:51.215Z,10.83
2023-01-04T03:26:39.619Z,11.20
2023-01-04T03:29:29.660Z,11.80
2023-01-04T03:32:26.147Z,13.77
2023-01-04T03:35:12.762Z,14.37
2023-01-04T03:37:49.044Z,12.23
2023-01-04T03:40:39.963Z,11.30
2023-01-04T03:43:28.274Z,9.20
2023-01-04T03:46:16.283Z,9.40
2023-01-04T03:48:54.274Z,10.47
2023-01-04T03:51:24.267Z,8.87
2023-01-04T03:53:57.684Z,9.80
2023-01-04T03:56:26.593Z,10.53
2023-01-04T03:58:55.672Z,10.00
2023-01-04T04:01:25.421Z,9.00
2023-01-04T04:04:11.011Z,10.13
2023-01-04T04:06:56.140Z,9.10
2023-01-04T04:09:25.431Z,11.33
2023-01-04T04:11:53.397Z,10.10
2023-01-04T04:14:21.341Z,9.30
2023-01-04T04:16:49.543Z,8.00
2023-01-04T04:19:17.548Z,7.10
2023-01-04T04:21:45.486Z,8.33
2023-01-04T04:24:18.139Z,7.67
2023-01-04T04:26:47.673Z,8.10
2023-01-04T04:29:15.614Z,8.53
2023-01-04T04:31:43.563Z,8.40
2023-01-04T04:34:11.566Z,8.53
2023-01-04T04:36:39.543Z,7.60
2023-01-04T04:39:07.630Z,8.47
2023-01-04T04:41:41.600Z,7.27
2023-01-04T04:44:12.610Z,8.13
2023-01-04T04:46:40.756Z,7.00
2023-01-04T04:49:09.377Z,7.20
2023-01-04T04:51:37.773Z,8.77
2023-01-04T04:54:06.107Z,8.80
2023-01-04T04:56:34.043Z,9.43
2023-01-04T04:59:01.944Z,9.03
2023-01-04T05:01:31.702Z,8.63
2023-01-04T05:03:59.761Z,7.53
2023-01-04T05:06:27.760Z,7.40
2023-01-04T05:08:55.920Z,6.80
2023-01-04T05:11:37.771Z,9.00
2023-01-04T05:14:05.717Z,7.50
2023-01-04T05:16:35.002Z,6.53
2023-01-04T05:19:02.987Z,7.00
2023-01-04T05:21:30.941Z,7.17
2023-01-04T05:23:58.924Z,8.10
2023-01-04T05:26:26.946Z,8.70
2023-01-04T05:28:54.928Z,10.33
2023-01-04T05:31:22.073Z,8.33
2023-01-04T05:33:51.478Z,8.10
2023-01-04T05:36:19.372Z,7.57
2023-01-04T05:38:47.287Z,7.30
2023-01-04T05:41:29.111Z,8.60
2023-01-04T05:43:57.055Z,7.37
2023-01-04T05:46:25.249Z,9.20
2023-01-04T05:48:54.520Z,7.70
2023-01-04T05:51:22.443Z,8.03
2023-01-04T05:53:50.348Z,8.23
2023-01-04T05:56:18.243Z,9.23
2023-01-04T05:58:46.155Z,8.90
2023-01-04T06:01:14.161Z,8.70
2023-01-04T06:03:42.239Z,9.60
2023-01-04T06:06:11.600Z,10.90
2023-01-04T06:08:39.530Z,9.53
2023-01-04T06:11:07.411Z,9.77
2023-01-04T06:13:35.341Z,8.67
2023-01-04T06:16:03.245Z,9.20
2023-01-04T06:18:31.139Z,10.10
2023-01-04T06:20:59.026Z,9.73
2023-01-04T06:23:28.288Z,10.30
2023-01-04T06:25:56.199Z,10.80
2023-01-04T06:28:24.176Z,10.10
2023-01-04T06:30:52.152Z,10.43
2023-01-04T06:33:20.054Z,9.23
2023-01-04T06:35:55.037Z,10.47
2023-01-04T06:38:23.077Z,9.43
2023-01-04T06:40:52.354Z,8.03
2023-01-04T06:43:20.478Z,8.60
2023-01-04T06:45:48.463Z,8.87
2023-01-04T06:48:18.237Z,12.13
2023-01-04T06:50:46.682Z,12.80
2023-01-04T06:53:14.586Z,15.00
2023-01-04T06:55:42.517Z,17.30
2023-01-04T06:58:11.824Z,17.00
2023-01-04T07:00:39.762Z,16.67
2023-01-04T07:03:13.653Z,23.80
2023-01-04T07:05:43.162Z,16.57
2023-01-04T07:08:12.021Z,33.70
2023-01-04T07:10:40.178Z,29.83
2023-01-04T07:13:08.810Z,23.73
2023-01-04T07:15:40.805Z,19.30
2023-01-04T07:18:09.463Z,20.00
2023-01-04T07:20:37.779Z,18.57
2023-01-04T07:23:05.771Z,18.90
2023-01-04T07:25:33.758Z,17.70
2023-01-04T07:28:01.717Z,22.27
2023-01-04T07:30:29.904Z,13.33
2023-01-04T07:32:59.489Z,13.90
2023-01-04T07:35:27.452Z,15.33
2023-01-04T07:37:58.677Z,14.40
2023-01-04T07:40:27.999Z,15.53
2023-01-04T07:42:57.928Z,16.17
2023-01-04T07:45:26.299Z,17.60
2023-01-04T07:47:54.495Z,18.47
2023-01-04T07:50:23.813Z,19.00
2023-01-04T07:52:51.819Z,22.83
2023-01-04T07:55:19.812Z,22.30
2023-01-04T07:57:47.695Z,22.97
2023-01-04T08:00:16.307Z,23.67
2023-01-04T08:02:44.361Z,23.20
2023-01-04T08:05:12.562Z,26.40
2023-01-04T08:07:41.915Z,26.50
2023-01-04T08:10:10.196Z,32.87
2023-01-04T08:12:38.155Z,35.00
2023-01-04T08:15:07.097Z,93.40
2023-01-04T08:17:35.395Z,39.70
2023-01-04T08:20:03.405Z,44.17
2023-01-04T08:22:31.305Z,37.70
2023-01-04T08:25:00.586Z,28.60
2023-01-04T08:27:28.484Z,25.40
2023-01-04T08:29:56.403Z,25.63
2023-01-04T08:32:24.319Z,27.03
2023-01-04T08:34:53.508Z,17.70
2023-01-04T08:37:21.593Z,23.60
2023-01-04T08:39:50.157Z,26.20
2023-01-04T08:42:26.601Z,28.53
2023-01-04T08:45:01.523Z,26.40
2023-01-04T08:47:30.097Z,26.83
2023-01-04T08:49:58.463Z,29.00
2023-01-04T08:52:26.571Z,26.73
2023-01-04T08:54:54.993Z,25.40
2023-01-04T08:57:24.309Z,27.93
2023-01-04T08:59:52.224Z,27.40
2023-01-04T09:02:24.524Z,24.90
2023-01-04T09:04:52.990Z,26.53
2023-01-04T09:07:20.911Z,26.57
2023-01-04T09:09:48.865Z,35.53
2023-01-04T09:12:16.792Z,25.43
2023-01-04T09:14:46.129Z,18.13
2023-01-04T09:17:14.001Z,17.37
2023-01-04T09:19:42.067Z,15.50
2023-01-04T09:22:10.167Z,18.20
2023-01-04T09:24:38.143Z,18.10
2023-01-04T09:27:06.048Z,19.40
2023-01-04T09:29:33.991Z,17.63
2023-01-04T09:32:03.411Z,21.60
2023-01-04T09:34:31.387Z,19.73
2023-01-04T09:36:59.263Z,22.90
2023-01-04T09:39:30.389Z,30.13
2023-01-04T09:42:00.072Z,28.37
2023-01-04T09:45:21.574Z,27.47
2023-01-04T09:47:34.188Z,40.17
2023-01-04T09:50:05.574Z,37.10
2023-01-04T09:52:44.416Z,35.23
2023-01-04T09:55:37.336Z,41.70
2023-01-04T09:58:13.456Z,37.80
2023-01-04T10:00:45.071Z,48.13
2023-01-04T10:03:17.055Z,44.80
2023-01-04T10:05:45.143Z,45.23
2023-01-04T10:08:16.506Z,40.83
2023-01-04T10:11:02.140Z,46.40
2023-01-04T10:13:40.331Z,44.23
2023-01-04T10:16:17.590Z,40.17
2023-01-04T10:19:59.701Z,40.80
2023-01-04T10:21:53.137Z,33.30
2023-01-04T10:24:32.162Z,48.03
2023-01-04T10:27:03.683Z,36.90
2023-01-04T10:29:53.770Z,42.83
2023-01-04T10:32:31.586Z,43.13
2023-01-04T10:35:01.070Z,46.50
2023-01-04T10:37:34.417Z,35.90
2023-01-04T10:40:02.739Z,30.13
2023-01-04T10:42:35.029Z,25.67
2023-01-04T10:45:16.159Z,33.40
2023-01-04T10:47:53.069Z,28.90
2023-01-04T10:50:29.253Z,28.37
2023-01-04T10:53:01.455Z,27.17
2023-01-04T10:55:32.987Z,27.63
2023-01-04T10:58:04.846Z,26.67
2023-01-04T11:00:38.654Z,27.00
2023-01-04T11:03:10.558Z,26.30
2023-01-04T11:05:42.855Z,23.90
2023-01-04T11:08:14.713Z,26.13
2023-01-04T11:10:46.929Z,27.93
2023-01-04T11:13:15.029Z,25.70
2023-01-04T11:15:43.748Z,24.73
2023-01-04T11:18:14.068Z,24.27
2023-01-04T11:20:43.493Z,25.00
2023-01-04T11:23:15.714Z,22.90
2023-01-04T11:25:51.992Z,21.37
2023-01-04T11:28:27.169Z,22.07
2023-01-04T11:30:59.870Z,20.67
2023-01-04T11:33:27.966Z,18.97
2023-01-04T11:35:59.382Z,20.17
2023-01-04T11:38:28.937Z,18.30
2023-01-04T11:40:59.614Z,18.83
2023-01-04T11:43:28.624Z,11.93
2023-01-04T11:46:04.522Z,12.17
2023-01-04T11:48:38.102Z,8.87
2023-01-04T11:51:18.944Z,11.13
2023-01-04T11:53:47.071Z,11.60
2023-01-04T11:56:18.765Z,7.30
2023-01-04T11:59:04.901Z,9.83
2023-01-04T12:01:34.976Z,8.80
2023-01-04T12:04:03.463Z,8.80
2023-01-04T12:06:39.209Z,12.00
2023-01-04T12:09:07.215Z,16.30
2023-01-04T12:11:36.676Z,16.50
2023-01-04T12:14:05.466Z,22.80
2023-01-04T12:16:46.413Z,25.10
2023-01-04T12:19:15.894Z,30.30
2023-01-04T12:21:47.869Z,20.33
2023-01-04T12:24:19.748Z,19.00
2023-01-04T12:26:48.336Z,16.50
2023-01-04T12:29:43.406Z,17.00
2023-01-04T12:32:40.249Z,16.60
2023-01-04T12:35:41.518Z,14.97
2023-01-04T12:38:11.969Z,13.73
2023-01-04T12:40:56.343Z,11.50
2023-01-04T12:43:26.702Z,12.80
2023-01-04T12:46:45.639Z,12.57
2023-01-04T12:49:52.262Z,10.60
2023-01-04T12:56:03.194Z,10.13
2023-01-04T12:59:25.077Z,18.47
2023-01-04T13:02:22.608Z,14.20
2023-01-04T13:05:08.326Z,10.03
2023-01-04T13:07:43.678Z,12.50
2023-01-04T13:10:21.725Z,9.40
2023-01-04T13:13:22.879Z,11.47
2023-01-04T13:16:02.914Z,9.57
2023-01-04T13:18:39.306Z,5.10
2023-01-04T13:21:12.846Z,5.23
2023-01-04T13:23:41.986Z,7.80
2023-01-04T13:26:37.263Z,4.70
2023-01-04T13:29:17.846Z,3.23
2023-01-04T13:31:55.353Z,3.50
2023-01-04T13:34:26.497Z,3.70
2023-01-04T13:36:56.041Z,3.70
2023-01-04T13:39:24.187Z,3.47
2023-01-04T13:41:52.929Z,3.43
2023-01-04T13:44:32.987Z,3.03
2023-01-04T13:47:13.720Z,3.10
2023-01-04T13:49:42.128Z,3.20
2023-01-04T13:52:58.333Z,3.67
2023-01-04T13:55:19.961Z,2.80
2023-01-04T13:57:54.942Z,3.63
2023-01-04T14:00:22.978Z,3.70
2023-01-04T14:03:06.031Z,3.03
2023-01-04T14:05:34.132Z,3.53
2023-01-04T14:08:02.034Z,3.20
2023-01-04T14:10:30.038Z,1.80
2023-01-04T14:12:58.067Z,2.00
2023-01-04T14:15:27.189Z,2.90
2023-01-04T14:17:55.921Z,2.20
2023-01-04T14:20:36.446Z,2.53
2023-01-04T14:23:05.102Z,1.90
2023-01-04T14:25:44.956Z,2.53
2023-01-04T14:28:49.121Z,2.07
2023-01-04T14:31:22.446Z,2.83
2023-01-04T14:33:51.605Z,2.23
2023-01-04T14:36:26.903Z,1.80
2023-01-04T14:39:01.484Z,1.80
2023-01-04T14:41:33.516Z,2.77
2023-01-04T14:44:10.126Z,3.00
2023-01-04T14:46:38.311Z,2.13
2023-01-04T14:49:06.358Z,2.53
2023-01-04T14:51:38.338Z,2.87
2023-01-04T14:54:06.537Z,2.17
2023-01-04T14:56:35.056Z,2.30
2023-01-04T14:59:03.073Z,2.97
2023-01-04T15:01:31.181Z,3.10
2023-01-04T15:03:59.135Z,2.93
2023-01-04T15:06:27.152Z,2.23
2023-01-04T15:08:56.487Z,2.17
2023-01-04T15:11:24.467Z,2.10
2023-01-04T15:13:52.382Z,2.13
2023-01-04T15:16:20.378Z,3.10
2023-01-04T15:18:48.397Z,2.43
2023-01-04T15:21:16.351Z,1.70
2023-01-04T15:23:44.318Z,3.33
2023-01-04T15:26:13.863Z,3.27
2023-01-04T15:28:41.818Z,2.77
2023-01-04T15:31:11.400Z,1.80
2023-01-04T15:33:39.955Z,1.83
2023-01-04T15:36:10.593Z,1.40
2023-01-04T15:38:38.924Z,2.00
2023-01-04T15:41:08.451Z,1.70
2023-01-04T15:43:37.517Z,1.60
2023-01-04T15:46:07.743Z,1.93
2023-01-04T15:48:36.312Z,1.70
2023-01-04T15:51:07.712Z,1.40
2023-01-04T15:53:35.935Z,1.47
2023-01-04T15:56:08.564Z,2.07
2023-01-04T15:58:37.923Z,1.70
2023-01-04T16:01:10.346Z,2.03
2023-01-04T16:03:38.847Z,3.60
2023-01-04T16:06:08.243Z,1.83
2023-01-04T16:08:36.173Z,2.13
2023-01-04T16:11:11.596Z,1.93
2023-01-04T16:13:41.453Z,1.90
2023-01-04T16:16:10.347Z,2.00
2023-01-04T16:18:38.958Z,1.27
2023-01-04T16:21:08.295Z,1.30
2023-01-04T16:23:36.324Z,2.87
2023-01-04T16:26:06.464Z,1.43
2023-01-04T16:28:34.529Z,1.43
2023-01-04T16:31:04.279Z,2.10
2023-01-04T16:33:32.248Z,1.70
2023-01-04T16:36:01.478Z,1.53
2023-01-04T16:38:29.414Z,1.30
2023-01-04T16:40:58.675Z,1.37
2023-01-04T16:43:26.609Z,1.10
2023-01-04T16:46:19.146Z,1.13
2023-01-04T16:48:50.791Z,1.60
2023-01-04T16:51:19.255Z,1.00
2023-01-04T16:53:47.388Z,0.97
2023-01-04T16:56:16.868Z,1.23
2023-01-04T16:58:45.375Z,1.20
2023-01-04T17:01:15.196Z,1.47
2023-01-04T17:03:45.519Z,1.90
2023-01-04T17:06:15.681Z,1.17
2023-01-04T17:08:43.756Z,1.10
2023-01-04T17:14:01.364Z,1.27
2023-01-04T17:16:34.403Z,1.27
2023-01-04T17:19:04.438Z,1.93
2023-01-04T17:21:34.183Z,1.67
2023-01-04T17:24:02.860Z,1.03
2023-01-04T17:26:32.654Z,1.77
2023-01-04T17:29:02.036Z,2.00
2023-01-04T17:31:31.725Z,1.60
2023-01-04T17:33:59.747Z,2.43
2023-01-04T17:36:29.107Z,2.33
2023-01-04T17:38:57.123Z,2.10
2023-01-04T17:41:26.473Z,2.10
2023-01-04T17:43:57.316Z,1.80
2023-01-04T17:46:27.235Z,2.33
2023-01-04T17:49:21.184Z,1.80
2023-01-04T17:51:45.336Z,2.63
2023-01-04T17:54:13.990Z,2.07
2023-01-04T17:56:41.907Z,1.90
2023-01-04T17:59:12.068Z,2.73
2023-01-04T18:01:40.088Z,2.40
2023-01-04T18:04:09.172Z,2.20
2023-01-04T18:06:38.566Z,1.73
2023-01-04T18:09:09.070Z,1.93
2023-01-04T18:11:37.613Z,2.07
2023-01-04T18:14:09.876Z,2.20
2023-01-04T18:19:35.350Z,2.13
2023-01-04T18:22:03.479Z,2.00
2023-01-04T18:24:39.822Z,2.10
2023-01-04T18:27:25.898Z,1.73
2023-01-04T18:29:55.033Z,1.87
2023-01-04T18:32:23.710Z,2.43
2023-01-04T18:34:53.053Z,1.80
2023-01-04T18:37:21.159Z,2.27
2023-01-04T18:39:49.167Z,1.40
2023-01-04T18:42:17.555Z,1.53
2023-01-04T18:44:49.696Z,1.90
2023-01-04T18:47:18.772Z,1.97
2023-01-04T18:49:46.729Z,1.53
2023-01-04T18:52:16.466Z,2.40
2023-01-04T18:54:45.073Z,1.57
2023-01-04T18:57:13.381Z,1.50
2023-01-04T18:59:41.910Z,1.90
2023-01-04T19:02:12.984Z,1.30
2023-01-04T19:04:41.124Z,1.33
2023-01-04T19:07:09.020Z,1.20
2023-01-04T19:09:39.474Z,1.20
2023-01-04T19:12:07.416Z,1.20
2023-01-04T19:14:35.322Z,1.17
2023-01-04T19:17:03.393Z,1.63
2023-01-04T19:19:31.315Z,1.27
2023-01-04T19:21:59.214Z,2.30
2023-01-04T19:24:27.352Z,1.20
2023-01-04T19:27:02.602Z,1.10
2023-01-04T19:29:30.709Z,1.30
2023-01-04T19:31:58.676Z,1.30
2023-01-04T19:34:26.587Z,1.50
2023-01-04T19:36:54.561Z,1.80
2023-01-04T19:39:22.491Z,1.57
2023-01-04T19:41:50.399Z,1.33
2023-01-04T19:44:19.690Z,1.70
2023-01-04T19:46:47.626Z,1.73
2023-01-04T19:49:15.842Z,1.73
2023-01-04T19:51:46.424Z,1.73
2023-01-04T19:54:17.536Z,2.23
2023-01-04T19:56:51.527Z,1.30
2023-01-04T19:59:20.829Z,1.43
2023-01-04T20:01:48.900Z,1.50
2023-01-04T20:04:17.011Z,1.33
2023-01-04T20:06:44.919Z,0.90
2023-01-04T20:09:12.829Z,1.20
2023-01-04T20:11:40.803Z,1.30
2023-01-04T20:14:08.751Z,1.50
2023-01-04T20:16:38.069Z,1.47
2023-01-04T20:19:05.982Z,1.40
2023-01-04T20:21:33.927Z,1.00
2023-01-04T20:24:02.062Z,0.97
2023-01-04T20:26:30.151Z,1.23
2023-01-04T20:28:58.036Z,1.50
2023-01-04T20:31:25.963Z,1.10
2023-01-04T20:33:56.811Z,1.40
2023-01-04T20:36:29.204Z,1.30
2023-01-04T20:38:59.518Z,1.20
2023-01-04T20:41:29.035Z,0.80
2023-01-04T20:43:55.962Z,1.30
2023-01-04T20:46:25.151Z,1.17
2023-01-04T20:48:53.264Z,1.30
2023-01-04T20:51:24.095Z,1.27
2023-01-04T20:53:52.612Z,1.20
2023-01-04T20:56:22.349Z,1.63
2023-01-04T20:58:50.771Z,1.10
2023-01-04T21:01:20.260Z,0.90
2023-01-04T21:03:48.391Z,1.00
2023-01-04T21:06:17.613Z,1.10
2023-01-04T21:08:47.659Z,1.53
2023-01-04T21:11:15.750Z,1.23
2023-01-04T21:13:44.077Z,1.90
2023-01-04T21:16:12.704Z,2.00
2023-01-04T21:18:40.595Z,1.27
2023-01-04T21:21:09.139Z,1.63
2023-01-04T21:23:38.221Z,1.30
2023-01-04T21:26:09.196Z,1.10
2023-01-04T21:28:37.202Z,1.10
2023-01-04T21:31:10.979Z,1.60
2023-01-04T21:33:39.070Z,1.43
2023-01-04T21:36:11.709Z,1.30
2023-01-04T21:38:39.623Z,1.00
2023-01-04T21:41:14.621Z,1.10
2023-01-04T21:43:43.484Z,0.97
2023-01-04T21:46:14.812Z,1.20
2023-01-04T21:48:42.919Z,1.10
2023-01-04T21:51:11.277Z,1.10
2023-01-04T21:53:40.031Z,1.50
2023-01-04T21:56:09.698Z,1.00
2023-01-04T21:58:39.844Z,1.20
2023-01-04T22:01:11.277Z,1.30
2023-01-04T22:03:39.787Z,1.10
2023-01-04T22:06:08.312Z,1.27
2023-01-04T22:08:36.313Z,1.33
2023-01-04T22:11:05.031Z,1.80
2023-01-04T22:13:33.007Z,1.20
2023-01-04T22:16:06.112Z,1.13
2023-01-04T22:18:34.147Z,1.53
2023-01-04T22:21:03.860Z,1.20
2023-01-04T22:23:32.087Z,0.80
2023-01-04T22:26:00.460Z,0.83
2023-01-04T22:28:34.691Z,1.00
2023-01-04T22:31:07.436Z,1.03
2023-01-04T22:33:35.952Z,2.37
2023-01-04T22:36:08.179Z,1.13
2023-01-04T22:38:36.831Z,1.00
2023-01-04T22:41:08.621Z,0.80
2023-01-04T22:43:37.148Z,0.73
2023-01-04T22:46:08.480Z,0.80
2023-01-04T22:48:37.026Z,0.80
2023-01-04T22:51:08.761Z,0.50
2023-01-04T22:53:36.938Z,0.70
2023-01-04T22:56:18.912Z,0.70
2023-01-04T22:58:53.055Z,1.00
2023-01-04T23:01:24.083Z,0.70
2023-01-04T23:03:52.859Z,0.90
2023-01-04T23:06:21.555Z,0.90
2023-01-04T23:08:49.770Z,1.10
2023-01-04T23:11:19.470Z,1.00
2023-01-04T23:13:47.608Z,1.53
2023-01-04T23:16:17.171Z,1.00
2023-01-04T23:18:46.655Z,0.77
2023-01-04T23:21:15.119Z,0.93
2023-01-04T23:23:43.414Z,0.90
2023-01-04T23:26:15.193Z,1.40
2023-01-04T23:28:43.260Z,1.70
2023-01-04T23:31:12.552Z,1.13
2023-01-04T23:33:40.559Z,1.20
2023-01-04T23:36:12.428Z,1.65
2023-01-04T23:38:40.989Z,1.33
2023-01-04T23:41:09.720Z,3.13
2023-01-04T23:43:38.756Z,1.77
2023-01-04T23:46:07.918Z,1.30
2023-01-04T23:48:35.978Z,3.53
2023-01-04T23:51:04.027Z,1.00
2023-01-04T23:53:33.463Z,1.00
2023-01-04T23:56:03.242Z,0.70
2023-01-04T23:58:31.541Z,0.70
